Bethune, Canada
Current Conditions -  °F | °C
As of 3:00 PM on Friday 24 Oct 2014 (Local Time) from CYMJ Reporting Station
Few Clouds Few Clouds  
Wind Chill: 55°   Ceiling: Unl
Heat Index: 55°   Visibility: 15mi
Dew Point: 32°   Wind: 24mph
Humidity: 41%   Direction: 280°W
Pressure: 29.87"   Gusts: 30mph
Location:  50.7°N, 105.22°W
Report Text: CYMJ 242100Z 28021G26KT 15SM FEW050 FEW250 13/00 A2987 RMKCU1CI1 SLP126
Loading
Personal Weather Stations






























Interactive Weather Map
Tropical Storm Tracking
New forecast layout! Learn more

10-Day Weather Forecast

Advertisements
Track Severe Weather on mobile